sensor_id;sensor_type;location;lat;lon;timestamp;pressure;altitude;pressure_sealevel;temperature;humidity
5053;BME280;2545;50.892;5.740;2023-02-03T00:01:39;56388.59;;;-142.21;100.00
5053;BME280;2545;50.892;5.740;2023-02-03T00:04:04;56425.84;;;-142.21;100.00
5053;BME280;2545;50.892;5.740;2023-02-03T00:06:31;56414.06;;;-142.21;100.00
5053;BME280;2545;50.892;5.740;2023-02-03T00:08:57;56439.56;;;-142.21;100.00
5053;BME280;2545;50.892;5.740;2023-02-03T00:11:24;56406.22;;;-142.21;100.00
5053;BME280;2545;50.892;5.740;2023-02-03T00:13:49;56365.06;;;-142.21;100.00
5053;BME280;2545;50.892;5.740;2023-02-03T00:16:14;56435.66;;;-142.21;100.00
5053;BME280;2545;50.892;5.740;2023-02-03T00:18:40;56390.53;;;-142.21;100.00
5053;BME280;2545;50.892;5.740;2023-02-03T00:21:05;56402.31;;;-142.21;100.00
5053;BME280;2545;50.892;5.740;2023-02-03T00:23:31;56402.31;;;-142.21;100.00
5053;BME280;2545;50.892;5.740;2023-02-03T00:25:57;56402.31;;;-142.21;100.00
5053;BME280;2545;50.892;5.740;2023-02-03T00:28:30;56414.06;;;-142.21;100.00
5053;BME280;2545;50.892;5.740;2023-02-03T00:30:56;56394.47;;;-142.21;100.00
5053;BME280;2545;50.892;5.740;2023-02-03T00:33:21;56384.66;;;-142.21;100.00
5053;BME280;2545;50.892;5.740;2023-02-03T00:35:46;56414.06;;;-142.21;100.00
5053;BME280;2545;50.892;5.740;2023-02-03T00:38:11;56394.47;;;-142.21;100.00
5053;BME280;2545;50.892;5.740;2023-02-03T00:40:37;56367.00;;;-142.21;100.00
5053;BME280;2545;50.892;5.740;2023-02-03T00:43:02;56378.78;;;-142.21;100.00
5053;BME280;2545;50.892;5.740;2023-02-03T00:45:27;56380.75;;;-142.21;100.00
5053;BME280;2545;50.892;5.740;2023-02-03T00:47:53;56378.78;;;-142.21;100.00
5053;BME280;2545;50.892;5.740;2023-02-03T00:50:18;56359.16;;;-142.21;100.00
5053;BME280;2545;50.892;5.740;2023-02-03T00:52:44;56398.38;;;-142.21;100.00
5053;BME280;2545;50.892;5.740;2023-02-03T00:55:09;56386.63;;;-142.21;100.00
5053;BME280;2545;50.892;5.740;2023-02-03T00:57:34;56429.75;;;-142.21;100.00
5053;BME280;2545;50.892;5.740;2023-02-03T01:00:00;56445.44;;;-142.21;100.00
5053;BME280;2545;50.892;5.740;2023-02-03T01:02:25;56408.19;;;-142.21;100.00
5053;BME280;2545;50.892;5.740;2023-02-03T01:04:51;56404.28;;;-142.21;100.00
5053;BME280;2545;50.892;5.740;2023-02-03T01:07:16;56380.75;;;-142.21;100.00
5053;BME280;2545;50.892;5.740;2023-02-03T01:09:41;56392.50;;;-142.21;100.00
5053;BME280;2545;50.892;5.740;2023-02-03T01:12:07;56380.75;;;-142.21;100.00
5053;BME280;2545;50.892;5.740;2023-02-03T01:14:32;56376.81;;;-142.21;100.00
5053;BME280;2545;50.892;5.740;2023-02-03T01:16:59;56396.44;;;-142.21;100.00
5053;BME280;2545;50.892;5.740;2023-02-03T01:19:24;56421.91;;;-142.21;100.00
5053;BME280;2545;50.892;5.740;2023-02-03T01:21:50;56376.81;;;-142.21;100.00
5053;BME280;2545;50.892;5.740;2023-02-03T01:24:15;56363.09;;;-142.21;100.00
5053;BME280;2545;50.892;5.740;2023-02-03T01:26:40;56392.50;;;-142.21;100.00
5053;BME280;2545;50.892;5.740;2023-02-03T01:29:06;56425.84;;;-142.21;100.00
5053;BME280;2545;50.892;5.740;2023-02-03T01:31:35;56372.91;;;-142.21;100.00
5053;BME280;2545;50.892;5.740;2023-02-03T01:34:01;56386.63;;;-142.21;100.00
5053;BME280;2545;50.892;5.740;2023-02-03T01:36:29;56394.47;;;-142.21;100.00
5053;BME280;2545;50.892;5.740;2023-02-03T01:38:55;56370.94;;;-142.21;100.00
5053;BME280;2545;50.892;5.740;2023-02-03T01:41:24;56394.47;;;-142.21;100.00
5053;BME280;2545;50.892;5.740;2023-02-03T01:43:52;56370.94;;;-142.21;100.00
5053;BME280;2545;50.892;5.740;2023-02-03T01:46:37;56382.69;;;-142.21;100.00
5053;BME280;2545;50.892;5.740;2023-02-03T01:49:12;56382.69;;;-142.21;100.00
5053;BME280;2545;50.892;5.740;2023-02-03T01:51:40;56380.75;;;-142.21;100.00
5053;BME280;2545;50.892;5.740;2023-02-03T01:54:08;56410.16;;;-142.21;100.00
5053;BME280;2545;50.892;5.740;2023-02-03T01:56:38;56378.78;;;-142.21;100.00
5053;BME280;2545;50.892;5.740;2023-02-03T01:59:06;56394.47;;;-142.21;100.00
5053;BME280;2545;50.892;5.740;2023-02-03T02:01:32;56425.84;;;-142.21;100.00
5053;BME280;2545;50.892;5.740;2023-02-03T02:04:00;56374.84;;;-142.21;100.00
5053;BME280;2545;50.892;5.740;2023-02-03T02:06:27;56431.72;;;-142.21;100.00
5053;BME280;2545;50.892;5.740;2023-02-03T02:08:52;56368.97;;;-142.21;100.00
5053;BME280;2545;50.892;5.740;2023-02-03T02:11:20;56400.34;;;-142.21;100.00
5053;BME280;2545;50.892;5.740;2023-02-03T02:13:46;56349.38;;;-142.21;100.00
5053;BME280;2545;50.892;5.740;2023-02-03T02:18:46;56406.22;;;-142.21;100.00
5053;BME280;2545;50.892;5.740;2023-02-03T02:21:21;56398.38;;;-142.21;100.00
5053;BME280;2545;50.892;5.740;2023-02-03T02:23:59;56396.44;;;-142.21;100.00
5053;BME280;2545;50.892;5.740;2023-02-03T02:29:54;56388.59;;;-142.21;100.00
5053;BME280;2545;50.892;5.740;2023-02-03T02:32:37;56386.63;;;-142.21;100.00
5053;BME280;2545;50.892;5.740;2023-02-03T02:35:29;56351.31;;;-142.21;100.00
5053;BME280;2545;50.892;5.740;2023-02-03T02:41:33;56429.75;;;-142.21;100.00
5053;BME280;2545;50.892;5.740;2023-02-03T02:44:10;56410.16;;;-142.21;100.00
5053;BME280;2545;50.892;5.740;2023-02-03T02:47:04;56388.59;;;-142.21;100.00
5053;BME280;2545;50.892;5.740;2023-02-03T02:49:35;56408.19;;;-142.21;100.00
5053;BME280;2545;50.892;5.740;2023-02-03T02:52:04;56392.50;;;-142.21;100.00
5053;BME280;2545;50.892;5.740;2023-02-03T02:54:33;56382.69;;;-142.21;100.00
5053;BME280;2545;50.892;5.740;2023-02-03T02:57:02;56402.31;;;-142.21;100.00
5053;BME280;2545;50.892;5.740;2023-02-03T02:59:29;56392.50;;;-142.21;100.00
5053;BME280;2545;50.892;5.740;2023-02-03T03:01:54;56412.13;;;-142.21;100.00
5053;BME280;2545;50.892;5.740;2023-02-03T03:04:26;56386.63;;;-142.21;100.00
5053;BME280;2545;50.892;5.740;2023-02-03T03:06:58;56363.09;;;-142.21;100.00
5053;BME280;2545;50.892;5.740;2023-02-03T03:09:49;56414.06;;;-142.21;100.00
5053;BME280;2545;50.892;5.740;2023-02-03T03:14:49;56400.34;;;-142.21;100.00
5053;BME280;2545;50.892;5.740;2023-02-03T03:17:25;56406.22;;;-142.21;100.00
5053;BME280;2545;50.892;5.740;2023-02-03T03:19:55;56406.22;;;-142.21;100.00
5053;BME280;2545;50.892;5.740;2023-02-03T03:22:24;56402.31;;;-142.21;100.00
5053;BME280;2545;50.892;5.740;2023-02-03T03:24:57;56374.84;;;-142.21;100.00
5053;BME280;2545;50.892;5.740;2023-02-03T03:27:29;56390.53;;;-142.21;100.00
5053;BME280;2545;50.892;5.740;2023-02-03T03:29:59;56388.59;;;-142.21;100.00
5053;BME280;2545;50.892;5.740;2023-02-03T03:32:27;56374.84;;;-142.21;100.00
5053;BME280;2545;50.892;5.740;2023-02-03T03:34:55;56410.16;;;-142.21;100.00
5053;BME280;2545;50.892;5.740;2023-02-03T03:39:58;56416.03;;;-142.21;100.00
5053;BME280;2545;50.892;5.740;2023-02-03T03:42:35;56396.44;;;-142.21;100.00
5053;BME280;2545;50.892;5.740;2023-02-03T03:45:10;56400.34;;;-142.21;100.00
5053;BME280;2545;50.892;5.740;2023-02-03T03:47:57;56390.53;;;-142.21;100.00
5053;BME280;2545;50.892;5.740;2023-02-03T03:50:33;56398.38;;;-142.21;100.00
5053;BME280;2545;50.892;5.740;2023-02-03T03:53:02;56368.97;;;-142.21;100.00
5053;BME280;2545;50.892;5.740;2023-02-03T03:55:31;56414.06;;;-142.21;100.00
5053;BME280;2545;50.892;5.740;2023-02-03T03:58:04;56378.78;;;-142.21;100.00
5053;BME280;2545;50.892;5.740;2023-02-03T04:00:33;56374.84;;;-142.21;100.00
5053;BME280;2545;50.892;5.740;2023-02-03T04:03:04;56410.16;;;-142.21;100.00
5053;BME280;2545;50.892;5.740;2023-02-03T04:05:32;56419.97;;;-142.21;100.00
5053;BME280;2545;50.892;5.740;2023-02-03T04:07:58;56382.69;;;-142.21;100.00
5053;BME280;2545;50.892;5.740;2023-02-03T04:10:29;56367.00;;;-142.21;100.00
5053;BME280;2545;50.892;5.740;2023-02-03T04:12:55;56421.91;;;-142.21;100.00
5053;BME280;2545;50.892;5.740;2023-02-03T04:15:21;56380.75;;;-142.21;100.00
5053;BME280;2545;50.892;5.740;2023-02-03T04:17:46;56386.63;;;-142.21;100.00
5053;BME280;2545;50.892;5.740;2023-02-03T04:20:12;56384.66;;;-142.21;100.00
5053;BME280;2545;50.892;5.740;2023-02-03T04:22:38;56419.97;;;-142.21;100.00
5053;BME280;2545;50.892;5.740;2023-02-03T04:25:03;56410.16;;;-142.21;100.00
5053;BME280;2545;50.892;5.740;2023-02-03T04:27:29;56406.22;;;-142.21;100.00
5053;BME280;2545;50.892;5.740;2023-02-03T04:29:54;56423.88;;;-142.21;100.00
5053;BME280;2545;50.892;5.740;2023-02-03T04:32:19;56406.22;;;-142.21;100.00
5053;BME280;2545;50.892;5.740;2023-02-03T04:34:45;56416.03;;;-142.21;100.00
5053;BME280;2545;50.892;5.740;2023-02-03T04:37:10;56408.19;;;-142.21;100.00
5053;BME280;2545;50.892;5.740;2023-02-03T04:39:36;56374.84;;;-142.21;100.00
5053;BME280;2545;50.892;5.740;2023-02-03T04:42:01;56398.38;;;-142.21;100.00
5053;BME280;2545;50.892;5.740;2023-02-03T04:44:27;56386.63;;;-142.21;100.00
5053;BME280;2545;50.892;5.740;2023-02-03T04:46:52;56410.16;;;-142.21;100.00
5053;BME280;2545;50.892;5.740;2023-02-03T04:49:17;56412.13;;;-142.21;100.00
5053;BME280;2545;50.892;5.740;2023-02-03T04:51:43;56376.81;;;-142.21;100.00
5053;BME280;2545;50.892;5.740;2023-02-03T04:54:09;56398.38;;;-142.21;100.00
5053;BME280;2545;50.892;5.740;2023-02-03T04:56:34;56384.66;;;-142.21;100.00
5053;BME280;2545;50.892;5.740;2023-02-03T04:59:00;56390.53;;;-142.21;100.00
5053;BME280;2545;50.892;5.740;2023-02-03T05:01:25;56357.22;;;-142.21;100.00
5053;BME280;2545;50.892;5.740;2023-02-03T05:03:50;56374.84;;;-142.21;100.00
5053;BME280;2545;50.892;5.740;2023-02-03T05:06:16;56416.03;;;-142.21;100.00
5053;BME280;2545;50.892;5.740;2023-02-03T05:08:41;56406.22;;;-142.21;100.00
5053;BME280;2545;50.892;5.740;2023-02-03T05:11:06;56423.88;;;-142.21;100.00
5053;BME280;2545;50.892;5.740;2023-02-03T05:13:31;56374.84;;;-142.21;100.00
5053;BME280;2545;50.892;5.740;2023-02-03T05:15:57;56396.44;;;-142.21;100.00
5053;BME280;2545;50.892;5.740;2023-02-03T05:18:22;56410.16;;;-142.21;100.00
5053;BME280;2545;50.892;5.740;2023-02-03T05:20:47;56363.09;;;-142.21;100.00
5053;BME280;2545;50.892;5.740;2023-02-03T05:23:13;56367.00;;;-142.21;100.00
5053;BME280;2545;50.892;5.740;2023-02-03T05:25:38;56380.75;;;-142.21;100.00
5053;BME280;2545;50.892;5.740;2023-02-03T05:28:03;56414.06;;;-142.21;100.00
5053;BME280;2545;50.892;5.740;2023-02-03T05:30:29;56388.59;;;-142.21;100.00
5053;BME280;2545;50.892;5.740;2023-02-03T05:32:54;56398.38;;;-142.21;100.00
5053;BME280;2545;50.892;5.740;2023-02-03T05:35:19;56410.16;;;-142.21;100.00
5053;BME280;2545;50.892;5.740;2023-02-03T05:37:45;56390.53;;;-142.21;100.00
5053;BME280;2545;50.892;5.740;2023-02-03T05:40:11;56386.63;;;-142.21;100.00
5053;BME280;2545;50.892;5.740;2023-02-03T05:42:55;56406.22;;;-142.21;100.00
5053;BME280;2545;50.892;5.740;2023-02-03T05:45:21;56363.09;;;-142.21;100.00
5053;BME280;2545;50.892;5.740;2023-02-03T05:47:46;56367.00;;;-142.21;100.00
5053;BME280;2545;50.892;5.740;2023-02-03T05:50:11;56412.13;;;-142.21;100.00
5053;BME280;2545;50.892;5.740;2023-02-03T05:52:36;56404.28;;;-142.21;100.00
5053;BME280;2545;50.892;5.740;2023-02-03T05:55:02;56390.53;;;-142.21;100.00
5053;BME280;2545;50.892;5.740;2023-02-03T05:57:27;56414.06;;;-142.21;100.00
5053;BME280;2545;50.892;5.740;2023-02-03T05:59:53;56390.53;;;-142.21;100.00
5053;BME280;2545;50.892;5.740;2023-02-03T06:02:18;56390.53;;;-142.21;100.00
5053;BME280;2545;50.892;5.740;2023-02-03T06:04:43;56376.81;;;-142.21;100.00
5053;BME280;2545;50.892;5.740;2023-02-03T06:07:08;56421.91;;;-142.21;100.00
5053;BME280;2545;50.892;5.740;2023-02-03T06:09:34;56382.69;;;-142.21;100.00
5053;BME280;2545;50.892;5.740;2023-02-03T06:11:59;56394.47;;;-142.21;100.00
5053;BME280;2545;50.892;5.740;2023-02-03T06:14:25;56388.59;;;-142.21;99.96
5053;BME280;2545;50.892;5.740;2023-02-03T06:16:52;56404.28;;;-142.21;100.00
5053;BME280;2545;50.892;5.740;2023-02-03T06:19:17;56423.88;;;-142.21;100.00
5053;BME280;2545;50.892;5.740;2023-02-03T06:21:43;56421.91;;;-142.21;99.13
5053;BME280;2545;50.892;5.740;2023-02-03T06:24:09;56376.81;;;-142.21;99.15
5053;BME280;2545;50.892;5.740;2023-02-03T06:26:34;56394.47;;;-142.21;98.39
5053;BME280;2545;50.892;5.740;2023-02-03T06:28:59;56388.59;;;-142.21;98.18
5053;BME280;2545;50.892;5.740;2023-02-03T06:31:25;56359.16;;;-142.21;97.87
5053;BME280;2545;50.892;5.740;2023-02-03T06:33:50;56374.84;;;-142.21;97.38
5053;BME280;2545;50.892;5.740;2023-02-03T06:36:15;56400.34;;;-142.21;97.25
5053;BME280;2545;50.892;5.740;2023-02-03T06:38:40;56418.00;;;-142.21;96.67
5053;BME280;2545;50.892;5.740;2023-02-03T06:41:06;56367.00;;;-142.21;96.47
5053;BME280;2545;50.892;5.740;2023-02-03T06:43:31;56406.22;;;-142.21;96.06
5053;BME280;2545;50.892;5.740;2023-02-03T06:45:56;56388.59;;;-142.21;95.10
5053;BME280;2545;50.892;5.740;2023-02-03T06:48:22;56359.16;;;-142.21;94.83
5053;BME280;2545;50.892;5.740;2023-02-03T06:50:47;56386.63;;;-142.21;94.42
5053;BME280;2545;50.892;5.740;2023-02-03T06:53:13;56376.81;;;-142.21;94.46
5053;BME280;2545;50.892;5.740;2023-02-03T06:55:38;56382.69;;;-142.21;94.44
5053;BME280;2545;50.892;5.740;2023-02-03T06:58:03;56396.44;;;-142.21;93.84
5053;BME280;2545;50.892;5.740;2023-02-03T07:00:29;56367.00;;;-142.21;93.82
5053;BME280;2545;50.892;5.740;2023-02-03T07:02:56;56353.28;;;-142.21;93.37
5053;BME280;2545;50.892;5.740;2023-02-03T07:05:22;56400.34;;;-142.21;93.66
5053;BME280;2545;50.892;5.740;2023-02-03T07:07:48;56372.91;;;-142.21;93.73
5053;BME280;2545;50.892;5.740;2023-02-03T07:10:14;56396.44;;;-142.21;93.75
5053;BME280;2545;50.892;5.740;2023-02-03T07:12:39;56412.13;;;-142.21;93.31
5053;BME280;2545;50.892;5.740;2023-02-03T07:15:05;56406.22;;;-142.21;93.55
5053;BME280;2545;50.892;5.740;2023-02-03T07:17:30;56400.34;;;-142.21;94.11
5053;BME280;2545;50.892;5.740;2023-02-03T07:19:56;56392.50;;;-142.21;93.82
5053;BME280;2545;50.892;5.740;2023-02-03T07:22:21;56361.13;;;-142.21;94.06
5053;BME280;2545;50.892;5.740;2023-02-03T07:24:46;56372.91;;;-142.21;94.01
5053;BME280;2545;50.892;5.740;2023-02-03T07:27:11;56370.94;;;-142.21;93.75
5053;BME280;2545;50.892;5.740;2023-02-03T07:29:37;56368.97;;;-142.21;93.92
5053;BME280;2545;50.892;5.740;2023-02-03T07:32:02;56394.47;;;-142.21;94.20
5053;BME280;2545;50.892;5.740;2023-02-03T07:34:28;56394.47;;;-142.21;93.79
5053;BME280;2545;50.892;5.740;2023-02-03T07:36:53;56382.69;;;-142.21;93.09
5053;BME280;2545;50.892;5.740;2023-02-03T07:39:19;56368.97;;;-142.21;93.56
5053;BME280;2545;50.892;5.740;2023-02-03T07:41:44;56400.34;;;-142.21;93.03
5053;BME280;2545;50.892;5.740;2023-02-03T07:44:09;56351.31;;;-142.21;93.26
5053;BME280;2545;50.892;5.740;2023-02-03T07:46:35;56359.16;;;-142.21;93.18
5053;BME280;2545;50.892;5.740;2023-02-03T07:49:04;56353.28;;;-142.21;92.66
5053;BME280;2545;50.892;5.740;2023-02-03T07:51:30;56404.28;;;-142.21;92.50
5053;BME280;2545;50.892;5.740;2023-02-03T07:53:55;56396.44;;;-142.21;92.14
5053;BME280;2545;50.892;5.740;2023-02-03T07:56:21;56392.50;;;-142.21;91.93
5053;BME280;2545;50.892;5.740;2023-02-03T07:58:46;56384.66;;;-142.21;91.95
5053;BME280;2545;50.892;5.740;2023-02-03T08:01:14;56372.91;;;-142.21;92.34
5053;BME280;2545;50.892;5.740;2023-02-03T08:03:40;56378.78;;;-142.21;92.32
5053;BME280;2545;50.892;5.740;2023-02-03T08:06:06;56402.31;;;-142.21;92.13
5053;BME280;2545;50.892;5.740;2023-02-03T08:08:32;56378.78;;;-142.21;91.55
5053;BME280;2545;50.892;5.740;2023-02-03T08:10:57;56384.66;;;-142.21;91.45
5053;BME280;2545;50.892;5.740;2023-02-03T08:13:23;56378.78;;;-142.21;92.04
5053;BME280;2545;50.892;5.740;2023-02-03T08:15:48;56365.06;;;-142.21;92.38
5053;BME280;2545;50.892;5.740;2023-02-03T08:18:13;56363.09;;;-142.21;92.91
5053;BME280;2545;50.892;5.740;2023-02-03T08:20:39;56380.75;;;-142.21;92.00
5053;BME280;2545;50.892;5.740;2023-02-03T08:23:04;56331.72;;;-142.21;91.57
5053;BME280;2545;50.892;5.740;2023-02-03T08:25:30;56388.59;;;-142.21;92.41
5053;BME280;2545;50.892;5.740;2023-02-03T08:27:55;56382.69;;;-142.21;92.16
5053;BME280;2545;50.892;5.740;2023-02-03T08:30:21;56365.06;;;-142.21;92.09
5053;BME280;2545;50.892;5.740;2023-02-03T08:32:47;56400.34;;;-142.21;91.81
5053;BME280;2545;50.892;5.740;2023-02-03T08:35:12;56361.13;;;-142.21;92.03
5053;BME280;2545;50.892;5.740;2023-02-03T08:37:37;56357.22;;;-142.21;91.47
5053;BME280;2545;50.892;5.740;2023-02-03T08:40:04;56390.53;;;-142.21;91.31
5053;BME280;2545;50.892;5.740;2023-02-03T08:42:30;56404.28;;;-142.21;91.51
5053;BME280;2545;50.892;5.740;2023-02-03T08:44:55;56370.94;;;-142.21;91.21
5053;BME280;2545;50.892;5.740;2023-02-03T08:47:21;56378.78;;;-142.21;91.45
5053;BME280;2545;50.892;5.740;2023-02-03T08:49:46;56392.50;;;-142.21;91.24
5053;BME280;2545;50.892;5.740;2023-02-03T08:52:13;56390.53;;;-142.21;91.68
5053;BME280;2545;50.892;5.740;2023-02-03T08:54:38;56400.34;;;-142.21;91.61
5053;BME280;2545;50.892;5.740;2023-02-03T08:57:04;56368.97;;;-142.21;91.81
5053;BME280;2545;50.892;5.740;2023-02-03T08:59:30;56408.19;;;-142.21;92.40
5053;BME280;2545;50.892;5.740;2023-02-03T09:01:55;56368.97;;;-142.21;92.43
5053;BME280;2545;50.892;5.740;2023-02-03T09:04:21;56374.84;;;-142.21;92.50
5053;BME280;2545;50.892;5.740;2023-02-03T09:06:52;56382.69;;;-142.21;92.37
5053;BME280;2545;50.892;5.740;2023-02-03T09:09:19;56378.78;;;-142.21;92.50
5053;BME280;2545;50.892;5.740;2023-02-03T09:11:44;56349.38;;;-142.21;92.89
5053;BME280;2545;50.892;5.740;2023-02-03T09:14:10;56380.75;;;-142.21;92.68
5053;BME280;2545;50.892;5.740;2023-02-03T09:16:36;56372.91;;;-142.21;92.27
5053;BME280;2545;50.892;5.740;2023-02-03T09:19:01;56357.22;;;-142.21;94.09
5053;BME280;2545;50.892;5.740;2023-02-03T09:21:27;56382.69;;;-142.21;96.55
5053;BME280;2545;50.892;5.740;2023-02-03T09:23:52;56398.38;;;-142.21;98.96
5053;BME280;2545;50.892;5.740;2023-02-03T09:26:17;56406.22;;;-142.21;100.00
5053;BME280;2545;50.892;5.740;2023-02-03T09:28:43;56398.38;;;-142.21;100.00
5053;BME280;2545;50.892;5.740;2023-02-03T09:31:11;56386.63;;;-142.21;100.00
5053;BME280;2545;50.892;5.740;2023-02-03T09:33:37;56404.28;;;-142.21;100.00
5053;BME280;2545;50.892;5.740;2023-02-03T09:36:04;56386.63;;;-142.21;100.00
5053;BME280;2545;50.892;5.740;2023-02-03T09:38:30;56398.38;;;-142.21;100.00
5053;BME280;2545;50.892;5.740;2023-02-03T09:41:28;56400.34;;;-142.21;100.00
5053;BME280;2545;50.892;5.740;2023-02-03T09:44:12;56414.06;;;-142.21;100.00
5053;BME280;2545;50.892;5.740;2023-02-03T09:46:49;56396.44;;;-142.21;100.00
5053;BME280;2545;50.892;5.740;2023-02-03T09:54:44;56363.09;;;-142.21;100.00
5053;BME280;2545;50.892;5.740;2023-02-03T09:57:24;56386.63;;;-142.21;100.00
5053;BME280;2545;50.892;5.740;2023-02-03T09:59:51;56414.06;;;-142.21;100.00
5053;BME280;2545;50.892;5.740;2023-02-03T10:02:36;56386.63;;;-142.21;100.00
5053;BME280;2545;50.892;5.740;2023-02-03T10:08:06;56384.66;;;-142.21;100.00
5053;BME280;2545;50.892;5.740;2023-02-03T10:10:48;56398.38;;;-142.21;100.00
5053;BME280;2545;50.892;5.740;2023-02-03T10:14:00;56402.31;;;-142.21;100.00
5053;BME280;2545;50.892;5.740;2023-02-03T10:16:41;56414.06;;;-142.21;100.00
5053;BME280;2545;50.892;5.740;2023-02-03T10:19:14;56423.88;;;-142.21;100.00
5053;BME280;2545;50.892;5.740;2023-02-03T10:21:48;56388.59;;;-142.21;100.00
5053;BME280;2545;50.892;5.740;2023-02-03T10:24:20;56396.44;;;-142.21;100.00
5053;BME280;2545;50.892;5.740;2023-02-03T10:26:48;56388.59;;;-142.21;100.00
5053;BME280;2545;50.892;5.740;2023-02-03T10:29:25;56423.88;;;-142.21;100.00
5053;BME280;2545;50.892;5.740;2023-02-03T10:31:57;56404.28;;;-142.21;100.00
5053;BME280;2545;50.892;5.740;2023-02-03T10:34:23;56378.78;;;-142.21;100.00
5053;BME280;2545;50.892;5.740;2023-02-03T10:36:56;56392.50;;;-142.21;100.00
5053;BME280;2545;50.892;5.740;2023-02-03T10:39:43;56390.53;;;-142.21;100.00
5053;BME280;2545;50.892;5.740;2023-02-03T10:42:10;56404.28;;;-142.21;100.00
5053;BME280;2545;50.892;5.740;2023-02-03T10:44:43;56374.84;;;-142.21;100.00
5053;BME280;2545;50.892;5.740;2023-02-03T10:49:42;56414.06;;;-142.21;100.00
5053;BME280;2545;50.892;5.740;2023-02-03T10:52:24;56418.00;;;-142.21;100.00
5053;BME280;2545;50.892;5.740;2023-02-03T10:54:50;56378.78;;;-142.21;100.00
5053;BME280;2545;50.892;5.740;2023-02-03T10:57:15;56406.22;;;-142.21;100.00
5053;BME280;2545;50.892;5.740;2023-02-03T10:59:43;56421.91;;;-142.21;100.00
5053;BME280;2545;50.892;5.740;2023-02-03T11:02:21;56439.56;;;-142.21;100.00
5053;BME280;2545;50.892;5.740;2023-02-03T11:05:07;56390.53;;;-142.21;100.00
5053;BME280;2545;50.892;5.740;2023-02-03T11:07:33;56418.00;;;-142.21;100.00
5053;BME280;2545;50.892;5.740;2023-02-03T11:09:58;56396.44;;;-142.21;100.00
5053;BME280;2545;50.892;5.740;2023-02-03T11:12:23;56408.19;;;-142.21;100.00
5053;BME280;2545;50.892;5.740;2023-02-03T11:14:51;56427.81;;;-142.21;100.00
5053;BME280;2545;50.892;5.740;2023-02-03T11:17:19;56447.41;;;-142.21;100.00
5053;BME280;2545;50.892;5.740;2023-02-03T11:19:48;56418.00;;;-142.21;100.00
5053;BME280;2545;50.892;5.740;2023-02-03T11:22:37;56394.47;;;-142.21;100.00
5053;BME280;2545;50.892;5.740;2023-02-03T11:25:15;56378.78;;;-142.21;100.00
5053;BME280;2545;50.892;5.740;2023-02-03T11:27:42;56419.97;;;-142.21;100.00
5053;BME280;2545;50.892;5.740;2023-02-03T11:30:16;56418.00;;;-142.21;100.00
5053;BME280;2545;50.892;5.740;2023-02-03T11:32:43;56418.00;;;-142.21;100.00
5053;BME280;2545;50.892;5.740;2023-02-03T11:37:50;56414.06;;;-142.21;100.00
5053;BME280;2545;50.892;5.740;2023-02-03T11:43:03;56408.19;;;-142.21;100.00
5053;BME280;2545;50.892;5.740;2023-02-03T11:45:39;56408.19;;;-142.21;100.00
5053;BME280;2545;50.892;5.740;2023-02-03T11:53:41;56372.91;;;-142.21;100.00
5053;BME280;2545;50.892;5.740;2023-02-03T11:59:15;56433.69;;;-142.21;100.00
5053;BME280;2545;50.892;5.740;2023-02-03T12:02:22;56382.69;;;-142.21;100.00
5053;BME280;2545;50.892;5.740;2023-02-03T12:05:24;56412.13;;;-142.21;100.00
5053;BME280;2545;50.892;5.740;2023-02-03T12:11:30;56398.38;;;-142.21;100.00
5053;BME280;2545;50.892;5.740;2023-02-03T12:14:06;56423.88;;;-142.21;100.00
5053;BME280;2545;50.892;5.740;2023-02-03T12:19:31;56433.69;;;-142.21;100.00
5053;BME280;2545;50.892;5.740;2023-02-03T12:22:12;56365.06;;;-142.21;100.00
5053;BME280;2545;50.892;5.740;2023-02-03T12:28:04;56390.53;;;-142.21;100.00
5053;BME280;2545;50.892;5.740;2023-02-03T12:30:38;56416.03;;;-142.21;100.00
5053;BME280;2545;50.892;5.740;2023-02-03T12:33:15;56425.84;;;-142.21;100.00
5053;BME280;2545;50.892;5.740;2023-02-03T12:35:45;56398.38;;;-142.21;100.00
5053;BME280;2545;50.892;5.740;2023-02-03T12:38:30;56398.38;;;-142.21;100.00
5053;BME280;2545;50.892;5.740;2023-02-03T12:41:05;56378.78;;;-142.21;100.00
5053;BME280;2545;50.892;5.740;2023-02-03T12:43:37;56445.44;;;-142.21;100.00
5053;BME280;2545;50.892;5.740;2023-02-03T12:51:09;56406.22;;;-142.21;100.00
5053;BME280;2545;50.892;5.740;2023-02-03T12:53:39;56402.31;;;-142.21;100.00
5053;BME280;2545;50.892;5.740;2023-02-03T12:56:08;56406.22;;;-142.21;100.00
5053;BME280;2545;50.892;5.740;2023-02-03T12:58:43;56351.31;;;-142.21;100.00
5053;BME280;2545;50.892;5.740;2023-02-03T13:01:21;56398.38;;;-142.21;100.00
5053;BME280;2545;50.892;5.740;2023-02-03T13:04:05;56429.75;;;-142.21;100.00
5053;BME280;2545;50.892;5.740;2023-02-03T13:06:51;56402.31;;;-142.21;100.00
5053;BME280;2545;50.892;5.740;2023-02-03T13:09:39;56370.94;;;-142.21;100.00
5053;BME280;2545;50.892;5.740;2023-02-03T13:14:53;56382.69;;;-142.21;100.00
5053;BME280;2545;50.892;5.740;2023-02-03T13:17:25;56400.34;;;-142.21;100.00
5053;BME280;2545;50.892;5.740;2023-02-03T13:19:55;56386.63;;;-142.21;100.00
5053;BME280;2545;50.892;5.740;2023-02-03T13:22:22;56388.59;;;-142.21;100.00
5053;BME280;2545;50.892;5.740;2023-02-03T13:25:14;56370.94;;;-142.21;100.00
5053;BME280;2545;50.892;5.740;2023-02-03T13:41:47;56386.63;;;-142.21;100.00
5053;BME280;2545;50.892;5.740;2023-02-03T13:44:20;56404.28;;;-142.21;100.00
5053;BME280;2545;50.892;5.740;2023-02-03T13:46:50;56398.38;;;-142.21;100.00
5053;BME280;2545;50.892;5.740;2023-02-03T13:49:26;56418.00;;;-142.21;100.00
5053;BME280;2545;50.892;5.740;2023-02-03T13:51:53;56410.16;;;-142.21;100.00
5053;BME280;2545;50.892;5.740;2023-02-03T13:54:33;56394.47;;;-142.21;100.00
5053;BME280;2545;50.892;5.740;2023-02-03T13:57:02;56427.81;;;-142.21;100.00
5053;BME280;2545;50.892;5.740;2023-02-03T14:04:56;56406.22;;;-142.21;100.00
5053;BME280;2545;50.892;5.740;2023-02-03T14:07:35;56382.69;;;-142.21;100.00
5053;BME280;2545;50.892;5.740;2023-02-03T14:10:14;56384.66;;;-142.21;100.00
5053;BME280;2545;50.892;5.740;2023-02-03T14:20:42;56396.44;;;-142.21;100.00
5053;BME280;2545;50.892;5.740;2023-02-03T14:23:22;56427.81;;;-142.21;100.00
5053;BME280;2545;50.892;5.740;2023-02-03T14:25:59;56410.16;;;-142.21;100.00
5053;BME280;2545;50.892;5.740;2023-02-03T14:28:39;56421.91;;;-142.21;100.00